createdAt,value
2023-01-26T00:01:45.030Z,33.28
2023-01-26T00:04:12.616Z,32.28
2023-01-26T00:06:39.628Z,30.65
2023-01-26T00:09:06.795Z,32.95
2023-01-26T00:11:33.842Z,32.53
2023-01-26T00:14:01.537Z,32.08
2023-01-26T00:16:28.712Z,33.35
2023-01-26T00:18:55.970Z,31.90
2023-01-26T00:21:24.569Z,34.13
2023-01-26T00:23:52.896Z,34.25
2023-01-26T00:26:24.830Z,34.25
2023-01-26T00:28:53.671Z,31.63
2023-01-26T00:31:24.891Z,37.08
2023-01-26T00:33:54.261Z,32.35
2023-01-26T00:36:21.696Z,36.83
2023-01-26T00:38:48.735Z,32.80
2023-01-26T00:41:34.500Z,31.95
2023-01-26T00:44:02.400Z,35.88
2023-01-26T00:46:29.681Z,36.45
2023-01-26T00:48:56.944Z,31.98
2023-01-26T00:51:24.147Z,34.20
2023-01-26T00:53:51.271Z,34.72
2023-01-26T00:56:19.354Z,34.22
2023-01-26T00:58:46.780Z,33.13
2023-01-26T01:01:13.938Z,38.30
2023-01-26T01:03:42.985Z,37.97
2023-01-26T01:06:10.193Z,32.50
2023-01-26T01:08:37.372Z,31.63
2023-01-26T01:11:10.218Z,38.78
2023-01-26T01:13:37.796Z,32.08
2023-01-26T01:16:09.948Z,39.42
2023-01-26T01:18:37.326Z,39.25
2023-01-26T01:21:11.927Z,34.38
2023-01-26T01:23:39.615Z,37.75
2023-01-26T01:26:07.433Z,34.80
2023-01-26T01:28:35.762Z,37.47
2023-01-26T01:31:07.382Z,36.55
2023-01-26T01:33:36.564Z,37.78
2023-01-26T01:36:10.058Z,37.67
2023-01-26T01:38:37.265Z,36.42
2023-01-26T01:41:04.530Z,37.45
2023-01-26T01:43:31.703Z,34.60
2023-01-26T01:46:01.730Z,35.05
2023-01-26T01:48:36.369Z,34.33
2023-01-26T01:51:12.890Z,34.30
2023-01-26T01:53:45.162Z,38.33
2023-01-26T01:56:21.842Z,36.55
2023-01-26T01:58:53.292Z,33.70
2023-01-26T02:01:20.628Z,35.38
2023-01-26T02:03:51.582Z,38.00
2023-01-26T02:06:42.131Z,38.60
2023-01-26T02:09:30.625Z,36.55
2023-01-26T02:11:59.139Z,34.80
2023-01-26T02:14:27.915Z,34.28
2023-01-26T02:16:55.052Z,36.03
2023-01-26T02:20:07.065Z,33.95
2023-01-26T02:22:56.155Z,32.38
2023-01-26T02:25:50.494Z,34.08
2023-01-26T02:28:19.363Z,34.65
2023-01-26T02:30:47.443Z,33.13
2023-01-26T02:33:26.049Z,35.08
2023-01-26T02:35:56.409Z,31.67
2023-01-26T02:38:29.264Z,32.95
2023-01-26T02:41:06.404Z,32.55
2023-01-26T02:43:33.867Z,32.17
2023-01-26T02:46:00.998Z,31.83
2023-01-26T02:48:47.632Z,32.08
2023-01-26T02:51:14.832Z,32.58
2023-01-26T02:53:42.842Z,29.73
2023-01-26T02:56:10.139Z,33.22
2023-01-26T02:58:37.237Z,32.15
2023-01-26T03:01:04.455Z,32.55
2023-01-26T03:03:44.305Z,32.72
2023-01-26T03:06:13.040Z,33.55
2023-01-26T03:08:40.398Z,30.90
2023-01-26T03:11:09.389Z,33.33
2023-01-26T03:13:36.759Z,34.80
2023-01-26T03:16:07.574Z,35.03
2023-01-26T03:18:55.091Z,31.83
2023-01-26T03:21:41.386Z,33.45
2023-01-26T03:24:31.315Z,33.72
2023-01-26T03:27:19.489Z,31.73
2023-01-26T03:29:46.783Z,33.30
2023-01-26T03:32:14.129Z,30.15
2023-01-26T03:34:42.786Z,33.65
2023-01-26T03:37:09.905Z,34.03
2023-01-26T03:40:02.468Z,32.42
2023-01-26T03:42:48.947Z,32.38
2023-01-26T03:45:35.059Z,34.10
2023-01-26T03:48:25.630Z,34.33
2023-01-26T03:51:11.054Z,34.45
2023-01-26T03:53:56.913Z,37.17
2023-01-26T03:56:31.643Z,34.63
2023-01-26T03:59:08.662Z,32.77
2023-01-26T04:01:38.983Z,33.03
2023-01-26T04:04:25.770Z,32.88
2023-01-26T04:07:12.407Z,32.63
2023-01-26T04:09:45.203Z,31.92
2023-01-26T04:12:13.922Z,31.50
2023-01-26T04:15:12.075Z,29.95
2023-01-26T04:17:57.745Z,33.25
2023-01-26T04:20:44.945Z,31.80
2023-01-26T04:23:19.725Z,33.05
2023-01-26T04:25:48.677Z,38.03
2023-01-26T04:28:16.409Z,32.45
2023-01-26T04:30:44.270Z,33.38
2023-01-26T04:33:12.099Z,35.00
2023-01-26T04:35:39.928Z,31.08
2023-01-26T04:38:07.561Z,31.90
2023-01-26T04:40:34.624Z,33.00
2023-01-26T04:43:02.966Z,30.42
2023-01-26T04:45:30.021Z,35.15
2023-01-26T04:47:57.325Z,33.78
2023-01-26T04:50:24.444Z,31.40
2023-01-26T04:52:51.674Z,30.77
2023-01-26T04:55:19.974Z,33.53
2023-01-26T04:57:47.247Z,33.10
2023-01-26T05:00:14.653Z,33.75
2023-01-26T05:02:42.260Z,34.15
2023-01-26T05:05:10.362Z,33.65
2023-01-26T05:07:37.823Z,33.13
2023-01-26T05:10:05.672Z,33.22
2023-01-26T05:13:07.955Z,35.88
2023-01-26T05:16:00.722Z,35.50
2023-01-26T05:19:00.398Z,34.45
2023-01-26T05:21:38.554Z,32.95
2023-01-26T05:24:06.301Z,31.88
2023-01-26T05:27:19.761Z,34.83
2023-01-26T05:29:51.373Z,32.95
2023-01-26T05:32:19.876Z,33.57
2023-01-26T05:34:47.047Z,33.97
2023-01-26T05:37:15.499Z,33.67
2023-01-26T05:39:45.233Z,35.00
2023-01-26T05:42:13.122Z,32.92
2023-01-26T05:44:58.726Z,31.77
2023-01-26T05:47:26.038Z,31.80
2023-01-26T05:49:53.224Z,36.33
2023-01-26T05:52:27.354Z,32.58
2023-01-26T05:54:54.520Z,31.30
2023-01-26T05:57:21.825Z,33.33
2023-01-26T05:59:59.130Z,37.33
2023-01-26T06:02:29.342Z,37.80
2023-01-26T06:07:23.442Z,33.78
2023-01-26T06:10:05.608Z,32.65
2023-01-26T06:12:48.184Z,32.63
2023-01-26T06:15:20.316Z,33.15
2023-01-26T06:17:48.846Z,36.42
2023-01-26T06:20:17.796Z,31.45
2023-01-26T06:22:53.906Z,31.80
2023-01-26T06:25:20.970Z,34.67
2023-01-26T06:27:48.129Z,30.30
2023-01-26T06:30:25.908Z,34.85
2023-01-26T06:32:54.990Z,34.42
2023-01-26T06:35:22.138Z,30.77
2023-01-26T06:37:51.641Z,32.15
2023-01-26T06:40:19.671Z,40.17
2023-01-26T06:42:50.564Z,35.35
2023-01-26T06:45:20.856Z,35.75
2023-01-26T06:47:51.391Z,34.65
2023-01-26T06:50:23.064Z,34.28
2023-01-26T06:52:56.696Z,32.83
2023-01-26T06:55:49.885Z,34.40
2023-01-26T06:58:43.076Z,29.20
2023-01-26T07:01:33.970Z,32.47
2023-01-26T07:04:01.123Z,31.60
2023-01-26T07:06:28.382Z,32.05
2023-01-26T07:08:55.422Z,33.72
2023-01-26T07:11:22.936Z,36.60
2023-01-26T07:13:50.043Z,34.38
2023-01-26T07:16:18.363Z,33.67
2023-01-26T07:18:45.967Z,35.55
2023-01-26T07:21:16.513Z,33.80
2023-01-26T07:23:43.531Z,31.55
2023-01-26T07:26:10.662Z,38.88
2023-01-26T07:28:40.103Z,35.17
2023-01-26T07:31:08.603Z,38.28
2023-01-26T07:33:36.141Z,37.60
2023-01-26T07:36:04.517Z,38.20
2023-01-26T07:38:33.386Z,38.30
2023-01-26T07:41:05.797Z,46.28
2023-01-26T07:43:34.904Z,46.20
2023-01-26T07:46:02.070Z,39.75
2023-01-26T07:48:32.253Z,39.05
2023-01-26T07:53:29.565Z,37.60
2023-01-26T07:56:13.074Z,38.80
2023-01-26T07:58:40.627Z,36.95
2023-01-26T08:01:10.414Z,36.08
2023-01-26T08:03:37.961Z,36.35
2023-01-26T08:06:06.105Z,33.80
2023-01-26T08:08:34.025Z,32.40
2023-01-26T08:11:02.412Z,35.40
2023-01-26T08:13:35.816Z,39.60
2023-01-26T08:16:12.757Z,39.17
2023-01-26T08:18:42.241Z,38.60
2023-01-26T08:21:10.627Z,38.03
2023-01-26T08:23:37.753Z,34.75
2023-01-26T08:26:12.021Z,34.15
2023-01-26T08:28:39.676Z,33.40
2023-01-26T08:31:11.662Z,32.53
2023-01-26T08:33:40.709Z,34.58
2023-01-26T08:36:11.241Z,38.13
2023-01-26T08:38:38.830Z,35.50
2023-01-26T08:41:06.526Z,33.83
2023-01-26T08:43:33.969Z,34.20
2023-01-26T08:46:01.596Z,35.20
2023-01-26T08:48:29.681Z,34.38
2023-01-26T08:50:59.182Z,35.00
2023-01-26T08:53:27.002Z,32.63
2023-01-26T08:55:54.170Z,33.17
2023-01-26T08:58:21.324Z,34.10
2023-01-26T09:00:48.479Z,33.20
2023-01-26T09:03:15.629Z,33.60
2023-01-26T09:05:42.822Z,33.13
2023-01-26T09:08:10.941Z,34.20
2023-01-26T09:10:39.164Z,34.25
2023-01-26T09:13:06.746Z,33.53
2023-01-26T09:15:33.897Z,34.15
2023-01-26T09:18:01.294Z,32.28
2023-01-26T09:20:28.998Z,34.53
2023-01-26T09:22:56.164Z,35.42
2023-01-26T09:25:23.262Z,35.55
2023-01-26T09:27:50.444Z,36.53
2023-01-26T09:30:17.805Z,36.08
2023-01-26T09:32:46.124Z,33.70
2023-01-26T09:35:14.976Z,36.80
2023-01-26T09:37:45.543Z,35.03
2023-01-26T09:43:26.002Z,33.90
2023-01-26T09:46:08.363Z,34.50
2023-01-26T09:48:47.521Z,35.95
2023-01-26T09:51:23.432Z,36.33
2023-01-26T09:53:59.085Z,32.72
2023-01-26T09:56:30.494Z,31.98
2023-01-26T09:59:05.288Z,33.67
2023-01-26T10:01:42.469Z,34.78
2023-01-26T10:04:36.739Z,32.65
2023-01-26T10:07:10.071Z,30.90
2023-01-26T10:09:50.056Z,30.52
2023-01-26T10:12:20.315Z,32.88
2023-01-26T10:17:41.308Z,29.17
2023-01-26T10:20:37.138Z,32.45
2023-01-26T10:23:12.599Z,34.55
2023-01-26T10:25:41.519Z,32.25
2023-01-26T10:28:15.838Z,30.08
2023-01-26T10:30:45.746Z,29.80
2023-01-26T10:35:43.922Z,30.65
2023-01-26T10:38:39.457Z,27.60
2023-01-26T10:41:06.554Z,28.00
2023-01-26T10:43:41.485Z,30.40
2023-01-26T10:46:31.596Z,31.15
2023-01-26T10:49:22.231Z,30.65
2023-01-26T10:52:18.449Z,29.05
2023-01-26T10:54:46.747Z,26.33
2023-01-26T10:57:24.287Z,30.17
2023-01-26T10:59:54.124Z,28.67
2023-01-26T11:02:29.653Z,28.60
2023-01-26T11:05:15.689Z,28.98
2023-01-26T11:07:45.108Z,27.90
2023-01-26T11:10:18.076Z,27.67
2023-01-26T11:12:45.675Z,27.35
2023-01-26T11:15:24.173Z,28.90
2023-01-26T11:18:29.857Z,26.80
2023-01-26T11:21:19.269Z,27.63
2023-01-26T11:23:55.404Z,26.17
2023-01-26T11:27:05.314Z,25.80
2023-01-26T11:29:52.191Z,25.92
2023-01-26T11:33:07.238Z,25.85
2023-01-26T11:35:50.743Z,24.73
2023-01-26T11:38:43.648Z,25.45
2023-01-26T11:41:29.334Z,24.77
2023-01-26T11:44:21.354Z,30.48
2023-01-26T11:47:06.755Z,28.48
2023-01-26T11:49:59.815Z,37.08
2023-01-26T11:52:45.386Z,26.98
2023-01-26T11:55:31.930Z,25.15
2023-01-26T11:58:33.989Z,24.88
2023-01-26T12:01:07.172Z,24.13
2023-01-26T12:03:42.086Z,24.63
2023-01-26T12:06:18.524Z,24.42
2023-01-26T12:08:53.923Z,25.80
2023-01-26T12:11:34.602Z,30.02
2023-01-26T12:14:13.440Z,30.10
2023-01-26T12:16:43.417Z,29.83
2023-01-26T12:19:13.282Z,25.92
2023-01-26T12:21:45.600Z,25.45
2023-01-26T12:24:54.322Z,24.13
2023-01-26T12:27:19.387Z,25.80
2023-01-26T12:30:01.825Z,26.00
2023-01-26T12:32:29.040Z,25.33
2023-01-26T12:34:56.211Z,25.00
2023-01-26T12:37:47.799Z,26.08
2023-01-26T12:40:36.211Z,25.15
2023-01-26T12:43:32.732Z,25.92
2023-01-26T12:46:03.338Z,26.83
2023-01-26T12:48:53.572Z,25.60
2023-01-26T12:51:27.514Z,26.65
2023-01-26T12:54:17.057Z,26.33
2023-01-26T12:56:55.267Z,27.48
2023-01-26T12:59:46.985Z,28.23
2023-01-26T13:02:15.920Z,28.92
2023-01-26T13:04:47.243Z,27.58
2023-01-26T13:07:34.401Z,26.73
2023-01-26T13:10:19.553Z,27.85
2023-01-26T13:12:57.875Z,25.92
2023-01-26T13:15:31.810Z,28.27
2023-01-26T13:18:04.474Z,29.35
2023-01-26T13:20:40.520Z,26.98
2023-01-26T13:23:43.553Z,26.02
2023-01-26T13:26:24.766Z,26.88
2023-01-26T13:28:52.691Z,27.63
2023-01-26T13:31:32.246Z,26.83
2023-01-26T13:34:02.361Z,27.27
2023-01-26T13:36:34.993Z,27.63
2023-01-26T13:39:12.650Z,27.85
2023-01-26T13:41:47.756Z,26.08
2023-01-26T13:44:20.829Z,27.55
2023-01-26T13:46:57.493Z,26.15
2023-01-26T13:49:44.136Z,26.33
2023-01-26T13:52:19.133Z,25.77
2023-01-26T13:54:47.471Z,26.10
2023-01-26T13:57:26.080Z,28.00
2023-01-26T13:59:59.453Z,27.20
2023-01-26T14:02:32.697Z,27.25
2023-01-26T14:05:02.372Z,27.63
2023-01-26T14:07:40.301Z,27.02
2023-01-26T14:10:08.095Z,27.67
2023-01-26T14:12:47.366Z,28.77
2023-01-26T14:15:33.618Z,27.17
2023-01-26T14:18:09.230Z,26.38
2023-01-26T14:20:39.685Z,27.85
2023-01-26T14:23:15.490Z,26.08
2023-01-26T14:25:47.339Z,27.30
2023-01-26T14:28:22.707Z,26.70
2023-01-26T14:30:58.440Z,31.33
2023-01-26T14:33:25.706Z,29.50
2023-01-26T14:36:01.939Z,30.88
2023-01-26T14:38:33.074Z,30.33
2023-01-26T14:41:01.800Z,29.55
2023-01-26T14:43:28.909Z,30.88
2023-01-26T14:46:05.475Z,29.70
2023-01-26T14:48:38.765Z,29.55
2023-01-26T14:51:12.891Z,28.23
2023-01-26T14:53:40.060Z,28.52
2023-01-26T14:56:19.026Z,30.80
2023-01-26T14:58:52.035Z,29.95
2023-01-26T15:01:26.950Z,29.70
2023-01-26T15:04:04.999Z,32.53
2023-01-26T15:07:46.976Z,32.78
2023-01-26T15:11:47.419Z,35.30
2023-01-26T15:14:46.554Z,30.73
2023-01-26T15:18:04.053Z,34.65
2023-01-26T15:28:43.979Z,31.17
2023-01-26T15:31:21.550Z,36.58
2023-01-26T15:33:50.100Z,39.50
2023-01-26T15:36:32.775Z,29.08
2023-01-26T15:39:15.650Z,30.10
2023-01-26T15:41:45.323Z,29.25
2023-01-26T15:44:17.865Z,28.48
2023-01-26T15:46:45.960Z,28.50
2023-01-26T15:49:15.848Z,29.25
2023-01-26T15:51:42.913Z,29.55
2023-01-26T15:54:11.601Z,29.17
2023-01-26T15:56:38.770Z,32.00
2023-01-26T15:59:06.059Z,29.55
2023-01-26T16:01:33.266Z,29.33
2023-01-26T16:04:00.366Z,28.75
2023-01-26T16:06:30.542Z,28.05
2023-01-26T16:11:37.397Z,26.38
2023-01-26T16:14:04.657Z,29.20
2023-01-26T16:16:33.015Z,26.38
2023-01-26T16:19:00.324Z,29.23
2023-01-26T16:21:35.197Z,28.63
2023-01-26T16:24:03.715Z,29.55
2023-01-26T16:26:31.642Z,28.23
2023-01-26T16:28:59.037Z,28.35
2023-01-26T16:31:31.331Z,25.15
2023-01-26T16:34:00.284Z,27.95
2023-01-26T16:36:27.722Z,26.48
2023-01-26T16:38:55.096Z,26.13
2023-01-26T16:41:26.513Z,27.60
2023-01-26T16:43:59.183Z,26.38
2023-01-26T16:46:27.844Z,26.90
2023-01-26T16:48:55.309Z,27.20
2023-01-26T16:51:26.678Z,27.05
2023-01-26T16:53:54.815Z,26.83
2023-01-26T16:56:22.734Z,27.00
2023-01-26T16:58:49.855Z,27.05
2023-01-26T17:01:20.267Z,25.75
2023-01-26T17:03:48.333Z,25.77
2023-01-26T17:06:17.073Z,25.92
2023-01-26T17:08:44.957Z,26.33
2023-01-26T17:11:27.806Z,24.85
2023-01-26T17:13:56.802Z,28.08
2023-01-26T17:16:29.634Z,27.15
2023-01-26T17:18:57.049Z,26.95
2023-01-26T17:21:24.220Z,27.52
2023-01-26T17:23:52.965Z,26.25
2023-01-26T17:26:21.851Z,27.38
2023-01-26T17:28:50.869Z,27.65
2023-01-26T17:31:20.352Z,27.13
2023-01-26T17:33:49.931Z,28.75
2023-01-26T17:36:18.520Z,25.92
2023-01-26T17:38:45.753Z,25.65
2023-01-26T17:41:12.906Z,24.23
2023-01-26T17:43:40.023Z,24.70
2023-01-26T17:46:18.317Z,24.17
2023-01-26T17:48:46.691Z,27.70
2023-01-26T17:51:21.270Z,26.75
2023-01-26T17:53:50.605Z,25.92
2023-01-26T17:56:20.206Z,25.70
2023-01-26T17:58:49.631Z,24.73
2023-01-26T18:01:17.037Z,26.13
2023-01-26T18:03:44.376Z,24.80
2023-01-26T18:06:11.815Z,25.27
2023-01-26T18:08:40.152Z,24.48
2023-01-26T18:11:10.278Z,24.70
2023-01-26T18:16:09.575Z,23.73
2023-01-26T18:18:36.863Z,23.00
2023-01-26T18:21:15.655Z,27.15
2023-01-26T18:24:04.098Z,26.20
2023-01-26T18:26:34.352Z,28.38
2023-01-26T18:31:31.787Z,24.90
2023-01-26T18:34:00.124Z,22.95
2023-01-26T18:36:28.249Z,23.52
2023-01-26T18:39:02.101Z,23.48
2023-01-26T18:41:33.313Z,25.00
2023-01-26T18:44:01.109Z,23.35
2023-01-26T18:46:28.789Z,23.52
2023-01-26T18:49:00.973Z,25.75
2023-01-26T18:51:29.897Z,23.88
2023-01-26T18:53:57.539Z,23.65
2023-01-26T18:56:24.617Z,25.27
2023-01-26T18:58:53.953Z,23.58
2023-01-26T19:01:21.419Z,22.70
2023-01-26T19:03:55.283Z,23.15
2023-01-26T19:06:24.408Z,22.98
2023-01-26T19:09:02.442Z,21.95
2023-01-26T19:11:32.546Z,25.15
2023-01-26T19:14:01.367Z,24.95
2023-01-26T19:16:30.102Z,24.77
2023-01-26T19:18:57.710Z,27.92
2023-01-26T19:21:27.715Z,27.50
2023-01-26T19:23:56.869Z,25.63
2023-01-26T19:26:28.021Z,24.30
2023-01-26T19:28:55.519Z,23.10
2023-01-26T19:31:23.403Z,22.83
2023-01-26T19:33:55.663Z,23.58
2023-01-26T19:36:23.855Z,22.42
2023-01-26T19:38:51.567Z,23.40
2023-01-26T19:41:19.684Z,21.23
2023-01-26T19:43:47.195Z,24.52
2023-01-26T19:46:15.440Z,22.80
2023-01-26T19:48:43.258Z,24.50
2023-01-26T19:51:17.214Z,23.35
2023-01-26T19:53:46.737Z,23.60
2023-01-26T19:56:17.119Z,22.42
2023-01-26T19:58:49.643Z,22.52
2023-01-26T20:01:17.081Z,22.60
2023-01-26T20:03:44.356Z,24.33
2023-01-26T20:06:15.941Z,22.40
2023-01-26T20:08:43.684Z,23.17
2023-01-26T20:11:11.005Z,24.27
2023-01-26T20:13:38.811Z,22.15
2023-01-26T20:16:10.252Z,26.92
2023-01-26T20:18:38.317Z,25.85
2023-01-26T20:21:07.374Z,25.15
2023-01-26T20:23:36.950Z,24.48
2023-01-26T20:26:09.568Z,28.00
2023-01-26T20:28:37.986Z,25.52
2023-01-26T20:31:11.154Z,25.88
2023-01-26T20:33:39.476Z,25.25
2023-01-26T20:36:09.434Z,24.90
2023-01-26T20:38:36.966Z,28.80
2023-01-26T20:41:11.796Z,27.55
2023-01-26T20:43:41.476Z,26.85
2023-01-26T20:46:11.723Z,26.73
2023-01-26T20:48:39.292Z,27.20
2023-01-26T20:51:12.591Z,25.73
2023-01-26T20:53:40.505Z,25.17
2023-01-26T20:56:09.375Z,27.25
2023-01-26T20:58:36.854Z,24.00
2023-01-26T21:01:09.018Z,25.35
2023-01-26T21:03:37.135Z,25.90
2023-01-26T21:06:05.983Z,25.38
2023-01-26T21:08:33.432Z,26.17
2023-01-26T21:11:02.675Z,25.88
2023-01-26T21:13:29.858Z,24.10
2023-01-26T21:15:56.989Z,25.35
2023-01-26T21:18:24.124Z,28.95
2023-01-26T21:21:04.029Z,27.45
2023-01-26T21:23:32.628Z,27.95
2023-01-26T21:26:00.501Z,27.30
2023-01-26T21:28:28.639Z,26.35
2023-01-26T21:31:03.979Z,26.65
2023-01-26T21:33:33.208Z,26.92
2023-01-26T21:36:02.656Z,25.45
2023-01-26T21:38:38.537Z,26.17
2023-01-26T21:41:29.782Z,24.58
2023-01-26T21:44:01.849Z,25.38
2023-01-26T21:46:30.097Z,24.30
2023-01-26T21:48:57.102Z,26.00
2023-01-26T21:51:44.012Z,24.85
2023-01-26T21:54:11.864Z,24.42
2023-01-26T21:56:39.522Z,26.73
2023-01-26T21:59:10.334Z,27.20
2023-01-26T22:01:40.400Z,26.80
2023-01-26T22:04:10.152Z,25.42
2023-01-26T22:06:38.073Z,26.90
2023-01-26T22:09:06.728Z,28.08
2023-01-26T22:11:33.976Z,27.17
2023-01-26T22:14:01.664Z,28.80
2023-01-26T22:16:29.140Z,27.88
2023-01-26T22:18:56.304Z,28.95
2023-01-26T22:21:24.293Z,26.13
2023-01-26T22:23:51.362Z,25.38
2023-01-26T22:26:20.451Z,23.67
2023-01-26T22:28:56.429Z,23.80
2023-01-26T22:31:27.249Z,22.42
2023-01-26T22:33:55.647Z,22.50
2023-01-26T22:36:24.046Z,23.15
2023-01-26T22:38:52.372Z,24.63
2023-01-26T22:41:22.185Z,24.75
2023-01-26T22:43:51.444Z,27.30
2023-01-26T22:46:20.675Z,27.98
2023-01-26T22:48:47.857Z,24.97
2023-01-26T22:51:19.185Z,26.98
2023-01-26T22:53:46.626Z,27.85
2023-01-26T22:56:13.746Z,23.98
2023-01-26T22:58:56.681Z,23.92
2023-01-26T23:01:26.582Z,21.65
2023-01-26T23:03:55.337Z,22.02
2023-01-26T23:06:22.952Z,23.70
2023-01-26T23:08:50.165Z,21.50
2023-01-26T23:11:20.911Z,21.13
2023-01-26T23:13:49.518Z,21.08
2023-01-26T23:16:17.023Z,21.08
2023-01-26T23:18:44.474Z,21.60
2023-01-26T23:21:12.166Z,20.55
2023-01-26T23:23:41.137Z,19.73
2023-01-26T23:26:09.076Z,20.80
2023-01-26T23:28:41.558Z,20.27
2023-01-26T23:31:11.008Z,21.45
2023-01-26T23:33:39.033Z,21.33
2023-01-26T23:36:07.280Z,22.08
2023-01-26T23:38:34.812Z,21.13
2023-01-26T23:41:02.364Z,21.70
2023-01-26T23:43:29.471Z,21.02
2023-01-26T23:45:57.008Z,21.83
2023-01-26T23:48:25.132Z,23.27
2023-01-26T23:50:57.078Z,24.73
2023-01-26T23:53:24.546Z,23.52
2023-01-26T23:55:51.909Z,24.13
2023-01-26T23:58:19.759Z,22.25
